sensor_id;sensor_type;location;lat;lon;timestamp;pressure;altitude;pressure_sealevel;temperature;humidity
28628;BME280;15815;46.760;19.604;2023-05-23T00:00:26;100034.59;;;16.47;85.34
28628;BME280;15815;46.760;19.604;2023-05-23T00:02:52;100007.22;;;16.27;84.88
28628;BME280;15815;46.760;19.604;2023-05-23T00:05:18;100019.91;;;16.35;85.36
28628;BME280;15815;46.760;19.604;2023-05-23T00:07:46;100021.72;;;16.29;85.75
28628;BME280;15815;46.760;19.604;2023-05-23T00:10:12;100031.13;;;16.26;86.12
28628;BME280;15815;46.760;19.604;2023-05-23T00:12:38;100030.34;;;16.26;86.36
28628;BME280;15815;46.760;19.604;2023-05-23T00:15:04;100008.34;;;16.17;85.92
28628;BME280;15815;46.760;19.604;2023-05-23T00:17:30;100011.59;;;16.16;85.63
28628;BME280;15815;46.760;19.604;2023-05-23T00:19:55;100026.03;;;16.21;86.49
28628;BME280;15815;46.760;19.604;2023-05-23T00:22:21;100020.69;;;16.23;85.53
28628;BME280;15815;46.760;19.604;2023-05-23T00:24:47;100025.34;;;16.17;85.65
28628;BME280;15815;46.760;19.604;2023-05-23T00:27:13;100021.78;;;16.13;86.07
28628;BME280;15815;46.760;19.604;2023-05-23T00:29:38;100022.69;;;16.10;86.58
28628;BME280;15815;46.760;19.604;2023-05-23T00:32:04;100025.22;;;16.21;86.20
28628;BME280;15815;46.760;19.604;2023-05-23T00:34:29;100031.13;;;16.26;86.12
28628;BME280;15815;46.760;19.604;2023-05-23T00:36:55;100025.06;;;15.99;87.40
28628;BME280;15815;46.760;19.604;2023-05-23T00:39:20;100026.75;;;15.96;87.71
28628;BME280;15815;46.760;19.604;2023-05-23T00:41:48;100021.72;;;15.88;88.23
28628;BME280;15815;46.760;19.604;2023-05-23T00:44:14;100031.84;;;15.89;87.70
28628;BME280;15815;46.760;19.604;2023-05-23T00:46:41;100034.66;;;15.89;87.66
28628;BME280;15815;46.760;19.604;2023-05-23T00:49:08;100027.38;;;15.88;87.50
28628;BME280;15815;46.760;19.604;2023-05-23T00:51:34;100021.91;;;15.81;87.85
28628;BME280;15815;46.760;19.604;2023-05-23T00:54:01;100020.31;;;15.80;88.01
28628;BME280;15815;46.760;19.604;2023-05-23T00:56:29;100007.53;;;15.59;89.35
28628;BME280;15815;46.760;19.604;2023-05-23T00:58:54;100022.78;;;15.65;89.78
28628;BME280;15815;46.760;19.604;2023-05-23T01:01:20;100027.53;;;15.68;89.18
28628;BME280;15815;46.760;19.604;2023-05-23T01:03:47;100015.75;;;15.53;89.87
28628;BME280;15815;46.760;19.604;2023-05-23T01:06:13;100017.34;;;15.54;89.81
28628;BME280;15815;46.760;19.604;2023-05-23T01:08:40;100037.28;;;15.67;88.91
28628;BME280;15815;46.760;19.604;2023-05-23T01:11:24;100025.84;;;15.54;90.35
28628;BME280;15815;46.760;19.604;2023-05-23T01:13:58;100031.72;;;15.63;89.97
28628;BME280;15815;46.760;19.604;2023-05-23T01:16:30;100027.09;;;15.53;90.79
28628;BME280;15815;46.760;19.604;2023-05-23T01:22:11;100023.22;;;15.47;91.56
28628;BME280;15815;46.760;19.604;2023-05-23T01:24:56;100015.81;;;15.37;91.92
28628;BME280;15815;46.760;19.604;2023-05-23T01:27:44;100016.66;;;15.34;92.53
28628;BME280;15815;46.760;19.604;2023-05-23T01:30:17;100021.06;;;15.51;90.89
28628;BME280;15815;46.760;19.604;2023-05-23T01:32:46;100019.13;;;15.48;91.11
28628;BME280;15815;46.760;19.604;2023-05-23T01:35:17;100003.41;;;15.31;92.18
28628;BME280;15815;46.760;19.604;2023-05-23T01:37:46;100011.44;;;15.49;90.33
28628;BME280;15815;46.760;19.604;2023-05-23T01:40:12;99992.44;;;15.33;90.36
28628;BME280;15815;46.760;19.604;2023-05-23T01:42:38;100008.72;;;15.45;91.42
28628;BME280;15815;46.760;19.604;2023-05-23T01:45:04;100017.56;;;15.47;91.14
28628;BME280;15815;46.760;19.604;2023-05-23T01:47:31;100005.19;;;15.41;91.41
28628;BME280;15815;46.760;19.604;2023-05-23T01:49:58;99987.84;;;15.39;91.22
28628;BME280;15815;46.760;19.604;2023-05-23T01:52:24;100010.66;;;15.64;90.90
28628;BME280;15815;46.760;19.604;2023-05-23T01:54:50;99982.66;;;15.50;90.56
28628;BME280;15815;46.760;19.604;2023-05-23T01:57:18;100006.03;;;15.70;91.50
28628;BME280;15815;46.760;19.604;2023-05-23T01:59:45;100006.03;;;15.70;91.47
28628;BME280;15815;46.760;19.604;2023-05-23T02:02:10;99991.72;;;15.61;91.61
28628;BME280;15815;46.760;19.604;2023-05-23T02:04:36;100000.34;;;15.70;91.78
28628;BME280;15815;46.760;19.604;2023-05-23T02:07:02;100003.66;;;15.82;90.62
28628;BME280;15815;46.760;19.604;2023-05-23T02:09:27;99984.72;;;15.79;90.78
28628;BME280;15815;46.760;19.604;2023-05-23T02:11:53;100004.19;;;15.93;91.14
28628;BME280;15815;46.760;19.604;2023-05-23T02:14:19;99984.63;;;15.82;91.62
28628;BME280;15815;46.760;19.604;2023-05-23T02:16:46;99997.22;;;15.81;92.81
28628;BME280;15815;46.760;19.604;2023-05-23T02:19:12;100005.50;;;15.88;92.64
28628;BME280;15815;46.760;19.604;2023-05-23T02:21:38;99979.84;;;15.66;93.98
28628;BME280;15815;46.760;19.604;2023-05-23T02:24:03;99974.84;;;15.70;93.07
28628;BME280;15815;46.760;19.604;2023-05-23T02:26:29;99983.81;;;15.69;93.80
28628;BME280;15815;46.760;19.604;2023-05-23T02:28:54;99993.59;;;15.81;92.90
28628;BME280;15815;46.760;19.604;2023-05-23T02:31:20;99982.59;;;15.83;92.51
28628;BME280;15815;46.760;19.604;2023-05-23T02:33:46;99993.28;;;15.91;91.93
28628;BME280;15815;46.760;19.604;2023-05-23T02:36:12;99977.59;;;15.87;92.33
28628;BME280;15815;46.760;19.604;2023-05-23T02:38:38;99992.03;;;15.92;91.94
28628;BME280;15815;46.760;19.604;2023-05-23T02:41:03;99990.34;;;15.95;92.00
28628;BME280;15815;46.760;19.604;2023-05-23T02:43:29;99999.53;;;15.99;91.73
28628;BME280;15815;46.760;19.604;2023-05-23T02:45:54;99978.50;;;15.84;92.07
28628;BME280;15815;46.760;19.604;2023-05-23T02:48:21;99988.38;;;15.79;92.29
28628;BME280;15815;46.760;19.604;2023-05-23T02:50:47;99971.59;;;15.56;92.66
28628;BME280;15815;46.760;19.604;2023-05-23T02:53:12;99999.09;;;15.71;92.73
28628;BME280;15815;46.760;19.604;2023-05-23T02:55:38;99975.75;;;15.67;92.17
28628;BME280;15815;46.760;19.604;2023-05-23T02:58:03;99978.25;;;15.65;92.18
28628;BME280;15815;46.760;19.604;2023-05-23T03:00:29;99983.47;;;15.67;91.65
28628;BME280;15815;46.760;19.604;2023-05-23T03:02:55;99989.22;;;15.63;91.95
28628;BME280;15815;46.760;19.604;2023-05-23T03:05:20;99977.25;;;15.56;91.36
28628;BME280;15815;46.760;19.604;2023-05-23T03:07:46;99993.53;;;15.68;91.38
28628;BME280;15815;46.760;19.604;2023-05-23T03:10:14;99991.72;;;15.61;91.38
28628;BME280;15815;46.760;19.604;2023-05-23T03:12:40;99997.63;;;15.67;91.70
28628;BME280;15815;46.760;19.604;2023-05-23T03:15:06;99994.34;;;15.68;91.80
28628;BME280;15815;46.760;19.604;2023-05-23T03:17:32;99996.97;;;15.75;91.37
28628;BME280;15815;46.760;19.604;2023-05-23T03:19:58;99990.97;;;15.73;91.52
28628;BME280;15815;46.760;19.604;2023-05-23T03:22:24;99974.97;;;15.67;91.17
28628;BME280;15815;46.760;19.604;2023-05-23T03:24:50;99991.53;;;15.81;91.27
28628;BME280;15815;46.760;19.604;2023-05-23T03:27:18;99994.47;;;15.77;91.20
28628;BME280;15815;46.760;19.604;2023-05-23T03:29:44;99968.94;;;15.65;91.87
28628;BME280;15815;46.760;19.604;2023-05-23T03:32:10;99995.16;;;15.82;91.88
28628;BME280;15815;46.760;19.604;2023-05-23T03:34:36;99978.84;;;15.86;91.09
28628;BME280;15815;46.760;19.604;2023-05-23T03:37:02;99986.06;;;16.03;90.40
28628;BME280;15815;46.760;19.604;2023-05-23T03:39:28;99992.56;;;16.16;90.23
28628;BME280;15815;46.760;19.604;2023-05-23T03:41:54;99983.59;;;16.18;90.90
28628;BME280;15815;46.760;19.604;2023-05-23T03:44:20;99974.75;;;16.28;90.55
28628;BME280;15815;46.760;19.604;2023-05-23T03:46:46;99957.75;;;16.28;89.66
28628;BME280;15815;46.760;19.604;2023-05-23T03:49:11;99967.41;;;16.44;89.58
28628;BME280;15815;46.760;19.604;2023-05-23T03:51:37;99976.13;;;16.62;89.82
28628;BME280;15815;46.760;19.604;2023-05-23T03:54:02;99975.84;;;16.73;89.56
28628;BME280;15815;46.760;19.604;2023-05-23T03:56:28;99959.09;;;16.62;90.06
28628;BME280;15815;46.760;19.604;2023-05-23T03:58:53;99977.19;;;16.81;89.79
28628;BME280;15815;46.760;19.604;2023-05-23T04:01:19;99975.59;;;16.80;90.93
28628;BME280;15815;46.760;19.604;2023-05-23T04:03:45;99977.06;;;16.84;90.50
28628;BME280;15815;46.760;19.604;2023-05-23T04:06:13;99992.72;;;17.02;89.51
28628;BME280;15815;46.760;19.604;2023-05-23T04:08:38;99972.28;;;17.07;88.69
28628;BME280;15815;46.760;19.604;2023-05-23T04:11:04;99997.44;;;17.30;88.47
28628;BME280;15815;46.760;19.604;2023-05-23T04:13:33;99978.97;;;17.47;87.59
28628;BME280;15815;46.760;19.604;2023-05-23T04:16:00;99993.69;;;17.68;87.44
28628;BME280;15815;46.760;19.604;2023-05-23T04:18:26;99990.66;;;17.84;87.08
28628;BME280;15815;46.760;19.604;2023-05-23T04:20:51;99980.66;;;18.01;86.60
28628;BME280;15815;46.760;19.604;2023-05-23T04:23:17;99985.59;;;18.32;86.42
28628;BME280;15815;46.760;19.604;2023-05-23T04:25:43;99990.16;;;18.60;85.91
28628;BME280;15815;46.760;19.604;2023-05-23T04:28:09;100000.41;;;18.89;85.18
28628;BME280;15815;46.760;19.604;2023-05-23T04:30:38;100005.22;;;18.92;86.06
28628;BME280;15815;46.760;19.604;2023-05-23T04:33:03;99994.47;;;19.14;85.21
28628;BME280;15815;46.760;19.604;2023-05-23T04:35:29;99995.69;;;19.53;84.87
28628;BME280;15815;46.760;19.604;2023-05-23T04:37:55;99997.28;;;19.54;84.10
28628;BME280;15815;46.760;19.604;2023-05-23T04:40:21;99990.16;;;19.77;82.64
28628;BME280;15815;46.760;19.604;2023-05-23T04:42:47;99992.97;;;20.14;81.99
28628;BME280;15815;46.760;19.604;2023-05-23T04:45:13;99984.06;;;20.21;82.26
28628;BME280;15815;46.760;19.604;2023-05-23T04:47:38;99986.78;;;20.15;81.95
28628;BME280;15815;46.760;19.604;2023-05-23T04:50:04;99981.84;;;20.25;81.93
28628;BME280;15815;46.760;19.604;2023-05-23T04:52:30;99977.41;;;20.24;81.38
28628;BME280;15815;46.760;19.604;2023-05-23T04:54:55;99994.16;;;20.49;80.29
28628;BME280;15815;46.760;19.604;2023-05-23T04:57:21;99981.19;;;20.81;79.37
28628;BME280;15815;46.760;19.604;2023-05-23T04:59:47;99977.47;;;21.23;78.40
28628;BME280;15815;46.760;19.604;2023-05-23T05:02:12;99972.66;;;21.38;79.33
28628;BME280;15815;46.760;19.604;2023-05-23T05:04:38;99989.69;;;21.71;79.16
28628;BME280;15815;46.760;19.604;2023-05-23T05:07:04;99976.16;;;22.10;78.36
28628;BME280;15815;46.760;19.604;2023-05-23T05:09:29;99981.47;;;22.62;76.38
28628;BME280;15815;46.760;19.604;2023-05-23T05:11:56;99985.09;;;22.92;75.77
28628;BME280;15815;46.760;19.604;2023-05-23T05:14:25;99987.63;;;23.39;75.02
28628;BME280;15815;46.760;19.604;2023-05-23T05:16:51;99989.34;;;23.72;73.91
28628;BME280;15815;46.760;19.604;2023-05-23T05:19:16;99975.25;;;23.94;73.42
28628;BME280;15815;46.760;19.604;2023-05-23T05:21:44;99981.41;;;24.33;72.10
28628;BME280;15815;46.760;19.604;2023-05-23T05:24:09;99981.13;;;24.63;72.30
28628;BME280;15815;46.760;19.604;2023-05-23T05:26:35;99981.81;;;24.84;72.71
28628;BME280;15815;46.760;19.604;2023-05-23T05:29:01;99995.56;;;25.00;72.06
28628;BME280;15815;46.760;19.604;2023-05-23T05:31:27;99978.78;;;24.93;70.29
28628;BME280;15815;46.760;19.604;2023-05-23T05:33:53;99997.69;;;25.05;67.39
28628;BME280;15815;46.760;19.604;2023-05-23T05:36:19;99989.47;;;24.92;67.16
28628;BME280;15815;46.760;19.604;2023-05-23T05:38:44;99973.72;;;24.82;65.80
28628;BME280;15815;46.760;19.604;2023-05-23T05:41:10;99994.41;;;24.92;64.22
28628;BME280;15815;46.760;19.604;2023-05-23T05:43:35;99992.91;;;24.96;63.48
28628;BME280;15815;46.760;19.604;2023-05-23T05:46:01;99982.78;;;24.70;63.71
28628;BME280;15815;46.760;19.604;2023-05-23T05:48:27;100008.16;;;24.77;63.00
28628;BME280;15815;46.760;19.604;2023-05-23T05:50:52;100008.44;;;24.47;62.63
28628;BME280;15815;46.760;19.604;2023-05-23T05:53:18;100008.16;;;24.45;62.62
28628;BME280;15815;46.760;19.604;2023-05-23T05:55:43;99998.38;;;24.63;62.40
28628;BME280;15815;46.760;19.604;2023-05-23T05:58:09;99996.03;;;24.93;61.32
28628;BME280;15815;46.760;19.604;2023-05-23T06:00:35;100010.97;;;25.40;60.42
28628;BME280;15815;46.760;19.604;2023-05-23T06:03:00;99995.53;;;25.43;59.83
28628;BME280;15815;46.760;19.604;2023-05-23T06:05:26;100001.72;;;25.73;59.56
28628;BME280;15815;46.760;19.604;2023-05-23T06:07:52;100012.28;;;25.98;58.60
28628;BME280;15815;46.760;19.604;2023-05-23T06:10:17;100017.91;;;26.41;58.64
28628;BME280;15815;46.760;19.604;2023-05-23T06:12:43;100010.59;;;26.73;57.21
28628;BME280;15815;46.760;19.604;2023-05-23T06:15:09;100011.38;;;26.74;57.07
28628;BME280;15815;46.760;19.604;2023-05-23T06:17:34;99995.13;;;27.04;55.89
28628;BME280;15815;46.760;19.604;2023-05-23T06:20:01;99998.13;;;27.68;54.88
28628;BME280;15815;46.760;19.604;2023-05-23T06:22:27;100008.94;;;28.09;55.44
28628;BME280;15815;46.760;19.604;2023-05-23T06:24:53;100003.84;;;28.31;55.09
28628;BME280;15815;46.760;19.604;2023-05-23T06:27:18;100011.97;;;28.33;53.30
28628;BME280;15815;46.760;19.604;2023-05-23T06:29:44;100010.25;;;28.54;53.28
28628;BME280;15815;46.760;19.604;2023-05-23T06:32:10;100007.66;;;28.45;53.22
28628;BME280;15815;46.760;19.604;2023-05-23T06:34:35;100005.88;;;28.72;52.49
28628;BME280;15815;46.760;19.604;2023-05-23T06:37:01;100020.19;;;28.59;51.26
28628;BME280;15815;46.760;19.604;2023-05-23T06:39:27;100027.38;;;29.12;50.14
28628;BME280;15815;46.760;19.604;2023-05-23T06:41:53;100012.50;;;29.51;48.58
28628;BME280;15815;46.760;19.604;2023-05-23T06:44:18;100022.63;;;30.26;48.14
28628;BME280;15815;46.760;19.604;2023-05-23T06:46:45;100013.19;;;30.38;48.29
28628;BME280;15815;46.760;19.604;2023-05-23T06:49:10;100017.59;;;29.89;48.70
28628;BME280;15815;46.760;19.604;2023-05-23T06:51:36;100005.28;;;30.90;46.47
28628;BME280;15815;46.760;19.604;2023-05-23T06:54:01;100012.56;;;31.10;48.99
28628;BME280;15815;46.760;19.604;2023-05-23T06:56:27;100011.97;;;31.83;47.19
28628;BME280;15815;46.760;19.604;2023-05-23T06:58:53;100015.44;;;32.42;46.76
28628;BME280;15815;46.760;19.604;2023-05-23T07:01:18;100012.19;;;32.66;48.52
28628;BME280;15815;46.760;19.604;2023-05-23T07:03:45;100022.13;;;33.12;47.88
28628;BME280;15815;46.760;19.604;2023-05-23T07:06:11;100004.66;;;33.12;48.28
28628;BME280;15815;46.760;19.604;2023-05-23T07:08:37;100016.69;;;33.66;44.84
28628;BME280;15815;46.760;19.604;2023-05-23T07:11:03;100008.78;;;34.02;43.58
28628;BME280;15815;46.760;19.604;2023-05-23T07:13:29;100011.72;;;34.18;43.14
28628;BME280;15815;46.760;19.604;2023-05-23T07:15:55;100004.81;;;34.36;44.14
28628;BME280;15815;46.760;19.604;2023-05-23T07:18:21;100018.66;;;34.51;41.00
28628;BME280;15815;46.760;19.604;2023-05-23T07:20:46;100003.41;;;34.29;41.40
28628;BME280;15815;46.760;19.604;2023-05-23T07:23:12;100012.41;;;34.47;40.26
28628;BME280;15815;46.760;19.604;2023-05-23T07:25:37;100011.69;;;34.61;38.51
28628;BME280;15815;46.760;19.604;2023-05-23T07:28:03;100019.16;;;34.85;38.48
28628;BME280;15815;46.760;19.604;2023-05-23T07:30:29;100005.06;;;34.53;39.11
28628;BME280;15815;46.760;19.604;2023-05-23T07:32:54;100021.91;;;34.32;41.07
28628;BME280;15815;46.760;19.604;2023-05-23T07:35:20;100010.22;;;34.32;40.76
28628;BME280;15815;46.760;19.604;2023-05-23T07:37:46;100010.75;;;35.20;41.21
28628;BME280;15815;46.760;19.604;2023-05-23T07:40:11;100016.78;;;35.52;40.94
28628;BME280;15815;46.760;19.604;2023-05-23T07:42:37;100020.63;;;35.85;38.92
28628;BME280;15815;46.760;19.604;2023-05-23T07:45:03;100010.31;;;35.69;38.62
28628;BME280;15815;46.760;19.604;2023-05-23T07:47:28;100021.69;;;36.13;38.08
28628;BME280;15815;46.760;19.604;2023-05-23T07:49:57;100021.25;;;36.24;35.53
28628;BME280;15815;46.760;19.604;2023-05-23T07:52:23;100008.09;;;36.00;36.46
28628;BME280;15815;46.760;19.604;2023-05-23T07:54:49;100009.38;;;36.22;34.28
28628;BME280;15815;46.760;19.604;2023-05-23T07:57:14;100010.84;;;36.71;34.38
28628;BME280;15815;46.760;19.604;2023-05-23T07:59:40;100012.69;;;36.59;35.46
28628;BME280;15815;46.760;19.604;2023-05-23T08:02:06;100022.75;;;37.23;33.34
28628;BME280;15815;46.760;19.604;2023-05-23T08:04:35;100012.41;;;37.22;30.03
28628;BME280;15815;46.760;19.604;2023-05-23T08:07:01;100013.97;;;36.73;32.84
28628;BME280;15815;46.760;19.604;2023-05-23T08:09:26;100007.81;;;37.11;33.01
28628;BME280;15815;46.760;19.604;2023-05-23T08:11:52;100006.47;;;37.71;32.91
28628;BME280;15815;46.760;19.604;2023-05-23T08:14:18;100006.31;;;37.87;32.82
28628;BME280;15815;46.760;19.604;2023-05-23T08:16:43;100004.06;;;37.78;33.16
28628;BME280;15815;46.760;19.604;2023-05-23T08:19:09;100005.09;;;37.90;33.62
28628;BME280;15815;46.760;19.604;2023-05-23T08:21:35;100011.19;;;37.67;32.82
28628;BME280;15815;46.760;19.604;2023-05-23T08:24:01;100001.44;;;38.16;32.39
28628;BME280;15815;46.760;19.604;2023-05-23T08:26:27;100002.50;;;37.77;32.28
28628;BME280;15815;46.760;19.604;2023-05-23T08:28:52;100000.41;;;37.52;32.11
28628;BME280;15815;46.760;19.604;2023-05-23T08:31:18;100008.75;;;37.38;32.45
28628;BME280;15815;46.760;19.604;2023-05-23T08:33:44;100012.97;;;37.03;30.02
28628;BME280;15815;46.760;19.604;2023-05-23T08:36:09;100004.22;;;37.20;29.67
28628;BME280;15815;46.760;19.604;2023-05-23T08:38:35;100013.38;;;37.84;31.30
28628;BME280;15815;46.760;19.604;2023-05-23T08:41:01;100015.50;;;38.62;31.49
28628;BME280;15815;46.760;19.604;2023-05-23T08:46:16;100019.53;;;38.40;30.40
28628;BME280;15815;46.760;19.604;2023-05-23T08:48:43;100015.69;;;38.64;32.27
28628;BME280;15815;46.760;19.604;2023-05-23T08:51:13;100017.03;;;39.36;30.73
28628;BME280;15815;46.760;19.604;2023-05-23T08:53:41;100018.78;;;39.49;30.09
28628;BME280;15815;46.760;19.604;2023-05-23T08:56:07;100003.97;;;39.85;28.45
28628;BME280;15815;46.760;19.604;2023-05-23T08:58:34;100006.28;;;39.87;28.92
28628;BME280;15815;46.760;19.604;2023-05-23T09:01:03;100012.78;;;39.76;28.04
28628;BME280;15815;46.760;19.604;2023-05-23T09:03:30;99999.84;;;38.86;29.39
28628;BME280;15815;46.760;19.604;2023-05-23T09:05:56;100021.06;;;39.31;29.42
28628;BME280;15815;46.760;19.604;2023-05-23T09:08:21;100002.31;;;39.27;29.71
28628;BME280;15815;46.760;19.604;2023-05-23T09:10:48;99995.03;;;38.27;30.27
28628;BME280;15815;46.760;19.604;2023-05-23T09:13:13;100002.72;;;37.11;30.49
28628;BME280;15815;46.760;19.604;2023-05-23T09:15:55;100003.34;;;36.85;27.50
28628;BME280;15815;46.760;19.604;2023-05-23T09:18:20;100000.22;;;36.18;29.00
28628;BME280;15815;46.760;19.604;2023-05-23T09:20:47;100004.06;;;35.73;29.80
28628;BME280;15815;46.760;19.604;2023-05-23T09:23:12;100004.09;;;35.65;29.00
28628;BME280;15815;46.760;19.604;2023-05-23T09:25:50;100000.22;;;35.63;32.11
28628;BME280;15815;46.760;19.604;2023-05-23T09:28:16;99998.63;;;35.69;30.76
28628;BME280;15815;46.760;19.604;2023-05-23T09:30:42;99993.16;;;37.11;29.24
28628;BME280;15815;46.760;19.604;2023-05-23T09:33:07;99993.41;;;37.05;28.37
28628;BME280;15815;46.760;19.604;2023-05-23T09:35:33;99982.94;;;36.45;28.80
28628;BME280;15815;46.760;19.604;2023-05-23T09:37:59;99989.38;;;37.01;28.89
28628;BME280;15815;46.760;19.604;2023-05-23T09:40:31;99981.34;;;37.95;27.98
28628;BME280;15815;46.760;19.604;2023-05-23T09:43:01;99976.06;;;38.11;28.99
28628;BME280;15815;46.760;19.604;2023-05-23T09:45:31;99986.94;;;38.01;30.29
28628;BME280;15815;46.760;19.604;2023-05-23T09:47:57;99992.78;;;38.62;30.38
28628;BME280;15815;46.760;19.604;2023-05-23T09:50:25;99982.56;;;38.90;29.65
28628;BME280;15815;46.760;19.604;2023-05-23T09:52:54;99984.44;;;39.90;28.79
28628;BME280;15815;46.760;19.604;2023-05-23T09:55:20;99977.63;;;39.59;29.04
28628;BME280;15815;46.760;19.604;2023-05-23T09:57:48;99982.94;;;39.14;28.68
28628;BME280;15815;46.760;19.604;2023-05-23T10:00:17;99984.38;;;38.59;29.20
28628;BME280;15815;46.760;19.604;2023-05-23T10:02:53;99982.69;;;37.85;29.86
28628;BME280;15815;46.760;19.604;2023-05-23T10:05:32;99977.44;;;36.09;30.90
28628;BME280;15815;46.760;19.604;2023-05-23T10:08:00;99975.63;;;35.73;30.27
28628;BME280;15815;46.760;19.604;2023-05-23T10:10:31;99971.63;;;35.15;30.21
28628;BME280;15815;46.760;19.604;2023-05-23T10:12:57;99965.19;;;35.40;29.39
28628;BME280;15815;46.760;19.604;2023-05-23T10:15:26;99968.09;;;34.71;30.58
28628;BME280;15815;46.760;19.604;2023-05-23T10:18:17;99971.03;;;34.71;29.12
28628;BME280;15815;46.760;19.604;2023-05-23T10:20:48;99975.69;;;34.59;30.43
28628;BME280;15815;46.760;19.604;2023-05-23T10:23:15;99977.09;;;35.34;30.39
28628;BME280;15815;46.760;19.604;2023-05-23T10:25:43;99950.66;;;35.72;30.66
28628;BME280;15815;46.760;19.604;2023-05-23T10:28:08;99955.78;;;35.64;31.13
28628;BME280;15815;46.760;19.604;2023-05-23T10:30:34;99961.13;;;34.82;31.57
28628;BME280;15815;46.760;19.604;2023-05-23T10:33:00;99952.41;;;35.83;29.97
28628;BME280;15815;46.760;19.604;2023-05-23T10:38:12;99948.84;;;34.83;29.78
28628;BME280;15815;46.760;19.604;2023-05-23T10:46:13;99947.47;;;34.77;31.39
28628;BME280;15815;46.760;19.604;2023-05-23T10:48:43;99935.44;;;34.57;29.93
28628;BME280;15815;46.760;19.604;2023-05-23T10:51:11;99956.19;;;34.38;29.77
28628;BME280;15815;46.760;19.604;2023-05-23T10:53:38;99949.00;;;33.44;29.86
28628;BME280;15815;46.760;19.604;2023-05-23T10:56:09;99930.38;;;33.19;31.22
28628;BME280;15815;46.760;19.604;2023-05-23T10:58:37;99929.72;;;33.70;32.66
28628;BME280;15815;46.760;19.604;2023-05-23T11:01:07;99932.53;;;33.91;32.02
28628;BME280;15815;46.760;19.604;2023-05-23T11:03:34;99925.19;;;33.61;31.04
28628;BME280;15815;46.760;19.604;2023-05-23T11:06:04;99923.91;;;33.77;32.62
28628;BME280;15815;46.760;19.604;2023-05-23T11:08:40;99939.06;;;34.27;33.80
28628;BME280;15815;46.760;19.604;2023-05-23T11:11:08;99933.19;;;33.68;31.62
28628;BME280;15815;46.760;19.604;2023-05-23T11:14:06;99929.06;;;33.28;31.09
28628;BME280;15815;46.760;19.604;2023-05-23T11:16:40;99932.63;;;33.34;33.52
28628;BME280;15815;46.760;19.604;2023-05-23T11:24:18;99905.00;;;33.27;34.02
28628;BME280;15815;46.760;19.604;2023-05-23T11:26:57;99910.91;;;33.14;33.18
28628;BME280;15815;46.760;19.604;2023-05-23T11:29:22;99903.44;;;33.62;34.10
28628;BME280;15815;46.760;19.604;2023-05-23T11:31:48;99900.78;;;33.72;34.82
28628;BME280;15815;46.760;19.604;2023-05-23T11:34:14;99886.69;;;33.19;34.34
28628;BME280;15815;46.760;19.604;2023-05-23T11:36:40;99886.84;;;32.85;33.85
28628;BME280;15815;46.760;19.604;2023-05-23T11:39:05;99916.88;;;32.59;32.94
28628;BME280;15815;46.760;19.604;2023-05-23T11:41:33;99898.38;;;32.28;34.50
28628;BME280;15815;46.760;19.604;2023-05-23T11:43:59;99876.16;;;32.17;34.85
28628;BME280;15815;46.760;19.604;2023-05-23T11:46:25;99894.31;;;32.10;34.50
28628;BME280;15815;46.760;19.604;2023-05-23T11:48:50;99875.47;;;31.56;34.78
28628;BME280;15815;46.760;19.604;2023-05-23T11:51:16;99891.88;;;32.35;34.76
28628;BME280;15815;46.760;19.604;2023-05-23T11:53:42;99887.72;;;32.31;34.36
28628;BME280;15815;46.760;19.604;2023-05-23T11:56:10;99868.88;;;32.45;34.67
28628;BME280;15815;46.760;19.604;2023-05-23T11:58:37;99890.63;;;32.93;35.55
28628;BME280;15815;46.760;19.604;2023-05-23T12:01:04;99871.25;;;33.03;35.13
28628;BME280;15815;46.760;19.604;2023-05-23T12:03:43;99852.81;;;32.51;35.25
28628;BME280;15815;46.760;19.604;2023-05-23T12:06:09;99858.09;;;32.32;35.04
28628;BME280;15815;46.760;19.604;2023-05-23T12:08:35;99864.09;;;32.55;34.79
28628;BME280;15815;46.760;19.604;2023-05-23T12:11:00;99866.38;;;32.49;34.22
28628;BME280;15815;46.760;19.604;2023-05-23T12:13:28;99842.38;;;32.56;34.30
28628;BME280;15815;46.760;19.604;2023-05-23T12:16:02;99848.16;;;32.27;31.62
28628;BME280;15815;46.760;19.604;2023-05-23T12:18:30;99832.47;;;31.89;32.47
28628;BME280;15815;46.760;19.604;2023-05-23T12:21:00;99837.06;;;31.50;34.73
28628;BME280;15815;46.760;19.604;2023-05-23T12:23:27;99859.47;;;31.50;34.23
28628;BME280;15815;46.760;19.604;2023-05-23T12:25:54;99846.47;;;31.30;34.71
28628;BME280;15815;46.760;19.604;2023-05-23T12:28:20;99828.59;;;31.13;34.96
28628;BME280;15815;46.760;19.604;2023-05-23T12:30:58;99839.66;;;31.14;35.88
28628;BME280;15815;46.760;19.604;2023-05-23T12:33:27;99833.19;;;30.95;36.03
28628;BME280;15815;46.760;19.604;2023-05-23T12:35:53;99840.66;;;31.03;35.86
28628;BME280;15815;46.760;19.604;2023-05-23T12:38:18;99843.56;;;30.90;36.59
28628;BME280;15815;46.760;19.604;2023-05-23T12:40:44;99844.81;;;30.23;38.97
28628;BME280;15815;46.760;19.604;2023-05-23T12:43:09;99852.38;;;29.19;44.26
28628;BME280;15815;46.760;19.604;2023-05-23T12:45:35;99840.94;;;28.59;45.15
28628;BME280;15815;46.760;19.604;2023-05-23T12:48:05;99847.97;;;28.39;48.73
28628;BME280;15815;46.760;19.604;2023-05-23T12:50:30;99843.78;;;27.69;51.66
28628;BME280;15815;46.760;19.604;2023-05-23T12:52:56;99838.59;;;27.04;51.97
28628;BME280;15815;46.760;19.604;2023-05-23T12:55:22;99850.25;;;26.54;52.15
28628;BME280;15815;46.760;19.604;2023-05-23T12:57:48;99856.28;;;26.16;52.55
28628;BME280;15815;46.760;19.604;2023-05-23T13:00:14;99868.03;;;25.85;52.35
28628;BME280;15815;46.760;19.604;2023-05-23T13:02:39;99863.97;;;25.38;52.82